Time;durP1;ratioP1;P1;durP2;ratioP2;P2;SDS_P1;SDS_P2;PMS_P1;PMS_P2;Temp;Humidity;BMP_temperature;BMP_pressure;BME280_temperature;BME280_humidity;BME280_pressure;Samples;Min_cycle;Max_cycle;Signal;HPM_P1;HPM_P2
2024/03/06 00:00:14;;;;;;;5.00;3.40;;;;;;;6.39;100.00;97586.94;1224550;75;2922478;-61
2024/03/06 00:02:47;;;;;;;5.45;3.30;;;;;;;6.41;100.00;97581.81;1224154;75;2923512;-64
2024/03/06 00:05:20;;;;;;;5.90;4.00;;;;;;;6.32;100.00;97590.69;1191986;75;5515042;-60
2024/03/06 00:07:53;;;;;;;4.90;3.85;;;;;;;6.34;100.00;97588.28;1225050;75;2944507;-63
2024/03/06 00:10:28;;;;;;;5.65;3.95;;;;;;;6.06;100.00;97595.59;1223726;75;2918988;-60
2024/03/06 00:13:01;;;;;;;5.60;4.30;;;;;;;6.20;100.00;97594.28;1224473;75;2911778;-61
2024/03/06 00:15:34;;;;;;;7.60;4.50;;;;;;;6.13;100.00;97595.34;1224450;75;2932471;-64
2024/03/06 00:18:07;;;;;;;6.90;5.00;;;;;;;6.24;100.00;97594.16;1224473;75;2925812;-61
2024/03/06 00:20:42;;;;;;;6.20;4.55;;;;;;;6.28;100.00;97605.66;1224404;75;2911326;-64
2024/03/06 00:23:14;;;;;;;5.10;3.85;;;;;;;6.27;100.00;97590.53;1223681;75;2918431;-64
2024/03/06 00:25:50;;;;;;;5.10;3.75;;;;;;;6.28;100.00;97600.97;1225034;75;2941334;-65
2024/03/06 00:28:23;;;;;;;5.30;4.10;;;;;;;6.27;100.00;97598.69;1225995;75;2917059;-62
2024/03/06 00:30:56;;;;;;;5.30;4.00;;;;;;;6.30;100.00;97606.72;1224625;75;2927888;-64
2024/03/06 00:33:29;;;;;;;5.65;4.05;;;;;;;6.29;100.00;97607.16;1224108;75;2933800;-64
2024/03/06 00:36:02;;;;;;;4.95;4.10;;;;;;;6.34;100.00;97612.00;1224460;75;2930423;-64
2024/03/06 00:38:35;;;;;;;5.15;4.05;;;;;;;6.28;100.00;97606.41;1223435;75;2918057;-64
2024/03/06 00:41:10;;;;;;;6.80;4.75;;;;;;;6.25;100.00;97609.25;1223571;75;2920042;-63
2024/03/06 00:43:43;;;;;;;8.15;5.60;;;;;;;6.30;100.00;97605.94;1224636;75;2927187;-65
2024/03/06 00:46:16;;;;;;;5.85;4.40;;;;;;;6.33;100.00;97605.06;1225037;75;2931217;-62
2024/03/06 00:48:49;;;;;;;6.20;4.75;;;;;;;6.28;100.00;97605.66;1224910;75;2919672;-65
2024/03/06 00:51:22;;;;;;;6.05;4.50;;;;;;;6.28;100.00;97598.25;1224992;75;2923742;-64
2024/03/06 00:53:55;;;;;;;6.50;5.00;;;;;;;6.24;100.00;97605.03;1225573;75;2917819;-65
2024/03/06 00:56:30;;;;;;;7.05;4.85;;;;;;;6.22;100.00;97602.75;1224557;75;2918030;-68
2024/03/06 00:59:03;;;;;;;6.45;4.80;;;;;;;6.31;100.00;97607.47;1224999;75;2918390;-65
2024/03/06 01:01:36;;;;;;;5.95;4.85;;;;;;;6.12;100.00;97595.78;1224443;75;2920828;-64
2024/03/06 01:04:09;;;;;;;9.35;5.90;;;;;;;6.13;100.00;97598.06;1224703;67;2926546;-64
2024/03/06 01:06:42;;;;;;;8.70;5.85;;;;;;;6.12;100.00;97601.19;1225858;75;2913005;-63
2024/03/06 01:09:14;;;;;;;8.90;6.35;;;;;;;6.08;100.00;97601.31;1224615;75;2913957;-63
2024/03/06 01:11:50;;;;;;;9.15;6.40;;;;;;;6.09;100.00;97611.00;1223435;75;2924420;-65
2024/03/06 01:14:23;;;;;;;9.45;7.05;;;;;;;6.02;100.00;97602.38;1224714;75;2924684;-65
2024/03/06 01:16:55;;;;;;;8.75;6.85;;;;;;;6.10;100.00;97603.59;1224614;67;2920902;-65
2024/03/06 01:19:28;;;;;;;7.60;5.40;;;;;;;6.14;100.00;97598.81;1225205;75;2920823;-62
2024/03/06 01:22:01;;;;;;;7.25;5.65;;;;;;;6.05;100.00;97599.50;1224518;75;2917314;-62
2024/03/06 01:24:34;;;;;;;7.65;6.35;;;;;;;6.07;100.00;97605.25;1225471;75;2929749;-65
2024/03/06 01:27:09;;;;;;;7.95;5.80;;;;;;;6.05;100.00;97607.66;1224897;75;2943814;-63
2024/03/06 01:29:42;;;;;;;8.50;5.90;;;;;;;6.11;100.00;97607.81;1225171;75;2927889;-64
2024/03/06 01:32:15;;;;;;;14.95;10.50;;;;;;;5.62;100.00;97603.78;1224619;75;2918359;-64
2024/03/06 01:34:48;;;;;;;18.30;12.95;;;;;;;5.57;100.00;97598.16;1225228;75;2922039;-64
2024/03/06 01:37:21;;;;;;;14.55;10.20;;;;;;;5.86;100.00;97595.16;1225328;75;2915295;-65
2024/03/06 01:39:54;;;;;;;12.15;8.45;;;;;;;5.84;100.00;97595.59;1225118;75;2915262;-65
2024/03/06 01:42:29;;;;;;;10.60;7.05;;;;;;;5.87;100.00;97600.16;1224393;75;2917107;-65
2024/03/06 01:45:02;;;;;;;7.05;5.55;;;;;;;5.85;100.00;97602.56;1225342;75;2911366;-63
2024/03/06 01:47:35;;;;;;;10.90;8.15;;;;;;;5.73;100.00;97598.72;1224997;75;2928433;-62
2024/03/06 01:50:11;;;;;;;10.40;6.85;;;;;;;5.82;100.00;97595.31;1224503;75;2895539;-65
2024/03/06 01:52:47;;;;;;;7.55;5.70;;;;;;;5.91;100.00;97589.16;1224916;75;2917345;-64
2024/03/06 01:55:20;;;;;;;6.40;5.05;;;;;;;5.92;100.00;97591.44;1225394;75;2916684;-63
2024/03/06 01:57:55;;;;;;;7.65;5.60;;;;;;;5.80;100.00;97588.78;1225160;75;2914615;-65
2024/03/06 02:00:28;;;;;;;7.25;5.15;;;;;;;5.83;100.00;97580.50;1225285;75;2917801;-64
2024/03/06 02:03:01;;;;;;;6.35;4.80;;;;;;;5.79;100.00;97588.03;1223599;75;2915802;-64
2024/03/06 02:05:35;;;;;;;5.75;4.65;;;;;;;5.70;100.00;97583.31;1224694;75;2918215;-62
2024/03/06 02:08:10;;;;;;;6.75;5.05;;;;;;;5.78;100.00;97585.78;1224412;75;2919696;-62
2024/03/06 02:10:43;;;;;;;6.00;4.60;;;;;;;5.73;100.00;97585.13;1224569;75;2908077;-63
2024/03/06 02:13:19;;;;;;;5.80;4.25;;;;;;;5.73;100.00;97578.97;1224365;75;2918111;-66
2024/03/06 02:15:52;;;;;;;5.25;4.15;;;;;;;5.73;100.00;97589.81;1224873;75;2919128;-62
2024/03/06 02:18:25;;;;;;;5.95;4.95;;;;;;;5.65;100.00;97578.47;1224620;75;2922100;-63
2024/03/06 02:21:01;;;;;;;5.55;4.45;;;;;;;5.64;100.00;97576.94;1224056;75;2929528;-61
2024/03/06 02:23:34;;;;;;;6.45;4.70;;;;;;;5.70;100.00;97582.53;1224134;75;2918553;-63
2024/03/06 02:26:07;;;;;;;6.45;4.85;;;;;;;5.66;100.00;97571.06;1224877;75;2919604;-63
2024/03/06 02:28:41;;;;;;;7.05;5.45;;;;;;;5.56;100.00;97572.97;1224510;75;2918198;-66
2024/03/06 02:31:14;;;;;;;9.35;6.85;;;;;;;5.39;100.00;97569.72;1224774;75;2920618;-64
2024/03/06 02:33:47;;;;;;;10.00;6.90;;;;;;;5.44;100.00;97569.13;1224624;75;2917507;-63
2024/03/06 02:36:23;;;;;;;11.40;6.90;;;;;;;5.46;100.00;97572.16;1225141;75;2917702;-65
2024/03/06 02:38:55;;;;;;;9.60;7.10;;;;;;;5.39;100.00;97569.72;1224751;75;2919126;-65
2024/03/06 02:41:30;;;;;;;10.05;7.70;;;;;;;5.43;100.00;97558.72;1223704;75;2921870;-64
2024/03/06 02:44:02;;;;;;;7.85;6.10;;;;;;;5.44;100.00;97569.13;1224650;67;2919445;-64
2024/03/06 02:46:36;;;;;;;8.50;6.30;;;;;;;5.44;100.00;97565.66;1224897;75;2926505;-64
2024/03/06 02:49:09;;;;;;;7.80;6.25;;;;;;;5.37;100.00;97566.69;1224548;75;2918931;-63
2024/03/06 02:51:44;;;;;;;9.95;6.75;;;;;;;5.25;100.00;97570.22;1223351;75;2923709;-63
2024/03/06 02:54:17;;;;;;;8.35;6.00;;;;;;;5.38;100.00;97559.28;1224878;75;2917116;-66
2024/03/06 02:56:50;;;;;;;8.35;6.20;;;;;;;5.39;100.00;97567.00;1226112;75;2923411;-65
2024/03/06 02:59:23;;;;;;;7.40;6.05;;;;;;;5.30;100.00;97564.97;1224756;75;2914050;-63
2024/03/06 03:01:56;;;;;;;7.85;6.55;;;;;;;5.20;100.00;97568.06;1224621;75;2926126;-63
2024/03/06 03:04:29;;;;;;;8.65;6.60;;;;;;;5.20;100.00;97568.81;1224443;75;2920662;-65
2024/03/06 03:07:05;;;;;;;8.10;5.95;;;;;;;5.33;100.00;97563.31;1224716;75;2915549;-64
2024/03/06 03:09:38;;;;;;;7.45;5.80;;;;;;;5.29;100.00;97571.59;1223537;75;2919013;-67
2024/03/06 03:12:11;;;;;;;8.70;6.70;;;;;;;5.34;100.00;97562.13;1223654;75;2918463;-65
2024/03/06 03:14:44;;;;;;;7.70;5.65;;;;;;;5.27;100.00;97567.81;1224705;75;2925298;-64
2024/03/06 03:17:17;;;;;;;6.25;5.10;;;;;;;5.28;100.00;97567.34;1224553;75;2923394;-65
2024/03/06 03:19:50;;;;;;;7.05;5.25;;;;;;;5.25;100.00;97572.94;1224831;75;2922913;-65
2024/03/06 03:22:26;;;;;;;7.50;5.75;;;;;;;5.21;100.00;97575.75;1224336;75;2924015;-62
2024/03/06 03:24:59;;;;;;;8.10;5.15;;;;;;;5.17;100.00;97582.50;1223778;75;2922206;-63
2024/03/06 03:27:31;;;;;;;5.85;4.90;;;;;;;5.13;100.00;97577.97;1224875;75;2923227;-65
2024/03/06 03:30:08;;;;;;;8.30;5.40;;;;;;;5.14;100.00;97584.13;1224701;75;2921808;-63
2024/03/06 03:32:42;;;;;;;7.80;5.85;;;;;;;5.11;100.00;97576.88;1224430;75;2915862;-61
2024/03/06 03:35:15;;;;;;;6.55;5.15;;;;;;;5.08;100.00;97585.91;1224225;75;2919437;-62
2024/03/06 03:37:51;;;;;;;7.85;5.65;;;;;;;4.82;100.00;97575.16;1224949;75;2922682;-64
2024/03/06 03:40:24;;;;;;;11.90;9.15;;;;;;;4.63;100.00;97589.72;1224900;75;2919456;-62
2024/03/06 03:42:57;;;;;;;13.00;10.20;;;;;;;4.64;100.00;97585.81;1224388;75;2923998;-61
2024/03/06 03:45:30;;;;;;;15.35;11.25;;;;;;;4.62;100.00;97580.09;1223295;75;2919211;-64
2024/03/06 03:48:03;;;;;;;13.95;10.30;;;;;;;4.72;100.00;97587.13;1223973;75;2920817;-66
2024/03/06 03:50:36;;;;;;;10.95;8.05;;;;;;;4.93;100.00;97584.88;1222667;75;2921903;-62
2024/03/06 03:53:11;;;;;;;9.70;8.10;;;;;;;4.96;100.00;97590.19;1223277;75;2919851;-64
2024/03/06 03:55:44;;;;;;;10.30;6.90;;;;;;;5.00;100.00;97582.66;1224782;75;2918892;-63
2024/03/06 03:58:17;;;;;;;8.20;5.85;;;;;;;4.97;100.00;97582.81;1224567;75;2916353;-64
2024/03/06 04:00:52;;;;;;;7.30;5.70;;;;;;;5.02;100.00;97583.00;1225253;75;2920525;-63
2024/03/06 04:03:25;;;;;;;6.90;5.55;;;;;;;5.11;100.00;97583.06;1224540;75;2918986;-65
2024/03/06 04:05:58;;;;;;;7.80;5.70;;;;;;;5.07;100.00;97589.81;1224728;75;2926439;-66
2024/03/06 04:08:33;;;;;;;8.75;6.25;;;;;;;5.12;100.00;97581.88;1224698;75;2918502;-64
2024/03/06 04:11:07;;;;;;;10.10;6.60;;;;;;;5.06;100.00;97582.88;1224612;75;2924869;-62
2024/03/06 04:13:41;;;;;;;8.65;5.70;;;;;;;5.11;100.00;97588.50;1224307;75;2921188;-61
2024/03/06 04:16:18;;;;;;;7.40;5.90;;;;;;;5.21;100.00;97594.00;1224735;75;2917450;-64
2024/03/06 04:18:51;;;;;;;6.65;5.10;;;;;;;5.21;100.00;97586.59;1225332;75;2913480;-64
2024/03/06 04:21:24;;;;;;;6.80;5.35;;;;;;;5.23;100.00;97586.94;1224463;83;2917604;-64
2024/03/06 04:24:00;;;;;;;7.00;5.40;;;;;;;5.20;100.00;97587.06;1224731;75;2923937;-64
2024/03/06 04:26:33;;;;;;;7.95;5.55;;;;;;;5.18;100.00;97584.78;1225118;75;2898098;-64
2024/03/06 04:29:06;;;;;;;8.20;5.80;;;;;;;5.15;100.00;97585.66;1224071;75;2921995;-63
2024/03/06 04:31:40;;;;;;;7.40;5.95;;;;;;;5.17;100.00;97585.22;1223320;75;2943899;-64
2024/03/06 04:34:12;;;;;;;8.05;6.25;;;;;;;5.24;100.00;97593.88;1223586;75;2918114;-68
2024/03/06 04:36:45;;;;;;;7.65;5.50;;;;;;;5.28;100.00;97589.06;1224456;75;2932521;-68
2024/03/06 04:39:21;;;;;;;7.90;5.90;;;;;;;5.32;100.00;97589.72;1224502;75;2917513;-62
2024/03/06 04:41:54;;;;;;;9.20;5.80;;;;;;;5.28;100.00;97586.34;1223998;75;2917619;-63
2024/03/06 04:44:26;;;;;;;9.65;6.85;;;;;;;5.28;100.00;97588.31;1224838;75;2916329;-65
2024/03/06 04:46:59;;;;;;;10.50;8.20;;;;;;;5.15;100.00;97591.09;1223250;75;2933004;-61
2024/03/06 04:49:36;;;;;;;12.10;8.85;;;;;;;5.25;100.00;97595.41;1224926;75;2915158;-65
2024/03/06 04:52:09;;;;;;;10.00;8.15;;;;;;;5.29;100.00;97595.25;1223785;75;2922060;-64
2024/03/06 04:54:44;;;;;;;10.30;7.85;;;;;;;5.31;100.00;97603.72;1225211;75;2918899;-61
2024/03/06 04:57:17;;;;;;;9.30;6.75;;;;;;;5.47;100.00;97610.94;1224978;75;2921753;-64
2024/03/06 04:59:50;;;;;;;8.30;6.50;;;;;;;5.49;100.00;97614.72;1224679;75;2922231;-62
2024/03/06 05:02:22;;;;;;;8.50;6.40;;;;;;;5.47;100.00;97611.69;1224033;75;2917899;-65
2024/03/06 05:04:55;;;;;;;7.50;5.75;;;;;;;5.47;100.00;97619.81;1223722;75;2920589;-66
2024/03/06 05:07:28;;;;;;;8.85;6.45;;;;;;;5.48;100.00;97613.22;1224758;75;2922766;-61
2024/03/06 05:10:04;;;;;;;8.05;5.90;;;;;;;5.49;100.00;97617.44;1224672;75;2937021;-63
2024/03/06 05:12:37;;;;;;;8.25;5.95;;;;;;;5.53;100.00;97618.06;1223752;75;2923094;-65
2024/03/06 05:15:11;;;;;;;8.55;6.65;;;;;;;5.51;100.00;97617.00;1224190;75;2942986;-64
2024/03/06 05:17:44;;;;;;;8.00;5.70;;;;;;;5.57;100.00;97617.94;1223991;75;2928724;-66
2024/03/06 05:20:18;;;;;;;7.80;6.00;;;;;;;5.59;100.00;97612.81;1224024;75;2924163;-64
2024/03/06 05:22:51;;;;;;;7.65;6.10;;;;;;;5.51;100.00;97617.75;1223144;75;2919542;-62
2024/03/06 05:25:26;;;;;;;8.45;7.10;;;;;;;5.54;100.00;97618.81;1224065;75;2925340;-63
2024/03/06 05:27:59;;;;;;;8.90;6.40;;;;;;;5.59;100.00;97612.81;1224099;75;2949249;-64
2024/03/06 05:30:32;;;;;;;9.35;6.45;;;;;;;5.54;100.00;97610.69;1224439;75;2926077;-62
2024/03/06 05:33:04;;;;;;;8.20;6.50;;;;;;;5.61;100.00;97615.09;1223055;75;2923718;-65
2024/03/06 05:35:37;;;;;;;8.85;6.40;;;;;;;5.67;100.00;97618.75;1223411;75;2931108;-65
2024/03/06 05:38:10;;;;;;;7.30;5.55;;;;;;;5.68;100.00;97615.59;1222363;75;2934383;-64
2024/03/06 05:40:46;;;;;;;9.80;7.10;;;;;;;5.67;100.00;97618.75;1223268;75;2925833;-62
2024/03/06 05:43:19;;;;;;;10.65;7.75;;;;;;;5.61;100.00;97618.56;1222419;75;2924272;-68
2024/03/06 05:45:53;;;;;;;9.55;7.60;;;;;;;5.66;100.00;97622.69;1222509;75;2927747;-65
2024/03/06 05:48:25;;;;;;;8.90;6.95;;;;;;;5.71;100.00;97622.84;1223639;75;2932105;-65
2024/03/06 05:50:58;;;;;;;7.10;5.75;;;;;;;5.74;100.00;97623.91;1223606;75;2926643;-63
2024/03/06 05:53:31;;;;;;;7.35;5.60;;;;;;;5.78;100.00;97624.56;1192814;75;5310333;-62
2024/03/06 05:56:10;;;;;;;7.30;5.10;;;;;;;5.84;100.00;97625.47;1223659;75;2926105;-63
2024/03/06 05:58:45;;;;;;;8.10;6.00;;;;;;;5.79;100.00;97619.88;1223567;75;2928139;-62
2024/03/06 06:01:19;;;;;;;6.95;5.30;;;;;;;5.89;100.00;97635.00;1224109;75;2928432;-62
2024/03/06 06:03:53;;;;;;;7.45;5.55;;;;;;;5.90;100.00;97637.31;1223450;75;2921929;-63
2024/03/06 06:06:25;;;;;;;8.80;6.85;;;;;;;5.89;100.00;97633.09;1222485;75;2953063;-67
2024/03/06 06:08:58;;;;;;;9.10;6.25;;;;;;;5.97;100.00;97628.91;1223434;75;2930928;-63
2024/03/06 06:11:34;;;;;;;9.55;5.80;;;;;;;6.04;100.00;97635.28;1222419;75;2922514;-61
2024/03/06 06:14:07;;;;;;;7.75;5.95;;;;;;;6.07;100.00;97632.44;1223443;75;2928013;-62
2024/03/06 06:16:41;;;;;;;9.00;6.30;;;;;;;6.11;100.00;97643.94;1224773;75;2925934;-62
2024/03/06 06:19:13;;;;;;;8.50;5.85;;;;;;;6.17;100.00;97652.25;1223226;75;2927666;-64
2024/03/06 06:21:47;;;;;;;9.30;6.25;;;;;;;6.20;100.00;97651.34;1222828;75;2927568;-64
2024/03/06 06:24:20;;;;;;;9.80;6.50;;;;;;;6.26;100.00;97657.75;1224435;75;2930419;-62
2024/03/06 06:26:55;;;;;;;10.25;6.90;;;;;;;6.25;100.00;97658.19;1223966;75;2924710;-65
2024/03/06 06:29:29;;;;;;;7.80;5.95;;;;;;;6.37;100.00;97654.59;1223510;75;2933325;-65
2024/03/06 06:32:01;;;;;;;7.95;5.95;;;;;;;6.34;100.00;97658.22;1222942;75;2928208;-64
2024/03/06 06:34:35;;;;;;;9.35;6.90;;;;;;;6.36;100.00;97653.84;1222785;75;2925738;-63
2024/03/06 06:37:07;;;;;;;9.10;6.40;;;;;;;6.44;100.00;97653.59;1223171;75;2921501;-64
2024/03/06 06:39:40;;;;;;;8.05;6.75;;;;;;;6.52;100.00;97666.47;1223451;75;2929068;-61
2024/03/06 06:42:16;;;;;;;11.90;8.10;;;;;;;6.65;100.00;97663.63;1223472;75;2919793;-63
2024/03/06 06:44:51;;;;;;;11.05;8.10;;;;;;;6.71;100.00;97661.84;1222895;75;2938929;-62
2024/03/06 06:47:24;;;;;;;12.20;7.80;;;;;;;6.77;100.00;97659.28;1220355;75;3012471;-64
2024/03/06 06:49:57;;;;;;;13.05;9.25;;;;;;;6.63;100.00;97662.56;1223325;75;2925898;-65
2024/03/06 06:52:31;;;;;;;12.45;8.85;;;;;;;6.83;100.00;97662.91;1224003;75;2922134;-63
2024/03/06 06:55:04;;;;;;;9.75;7.30;;;;;;;6.94;100.00;97657.81;1223681;75;2924877;-63
2024/03/06 06:57:41;;;;;;;10.50;7.65;;;;;;;6.97;100.00;97667.78;1223484;75;2926898;-64
2024/03/06 07:00:18;;;;;;;9.10;7.00;;;;;;;7.07;100.00;97665.06;1223416;75;2919103;-60
2024/03/06 07:02:51;;;;;;;12.05;8.30;;;;;;;6.99;100.00;97656.44;1224154;75;2926440;-61
2024/03/06 07:05:26;;;;;;;14.30;10.10;;;;;;;7.00;100.00;97658.72;1222076;75;2935899;-61
2024/03/06 07:07:59;;;;;;;12.10;8.55;;;;;;;7.11;100.00;97658.28;1223623;75;2935039;-63
2024/03/06 07:10:32;;;;;;;12.75;10.10;;;;;;;7.23;100.00;97662.06;1223247;75;2959046;-64
2024/03/06 07:13:08;;;;;;;11.10;7.70;;;;;;;7.38;100.00;97664.94;1222368;75;2929872;-63
2024/03/06 07:15:41;;;;;;;10.40;6.90;;;;;;;7.50;100.00;97666.00;1223794;75;2928225;-65
2024/03/06 07:18:14;;;;;;;11.80;8.20;;;;;;;7.31;100.00;97655.13;1223854;75;2920018;-63
2024/03/06 07:20:47;;;;;;;12.00;7.95;;;;;;;7.57;100.00;97677.34;1223902;75;2928180;-63
2024/03/06 07:23:20;;;;;;;14.80;10.30;;;;;;;7.33;100.00;97668.28;1223934;75;2925126;-63
2024/03/06 07:25:53;;;;;;;17.80;12.30;;;;;;;7.27;100.00;97676.31;1223606;75;2920804;-64
2024/03/06 07:28:28;;;;;;;14.50;10.65;;;;;;;7.48;100.00;97674.66;1223032;75;2926899;-64
2024/03/06 07:31:02;;;;;;;13.45;9.50;;;;;;;7.51;100.00;97678.44;1224502;75;2926863;-64
2024/03/06 07:33:37;;;;;;;15.55;11.10;;;;;;;7.44;100.00;97680.25;1222761;75;2925225;-66
2024/03/06 07:36:11;;;;;;;20.65;13.40;;;;;;;7.24;100.00;97683.41;1224720;75;2920077;-63
2024/03/06 07:38:44;;;;;;;21.55;14.45;;;;;;;7.31;100.00;97676.94;1224074;75;2921821;-64
2024/03/06 07:41:17;;;;;;;22.15;15.60;;;;;;;7.28;100.00;97677.06;1224024;75;2919751;-61
2024/03/06 07:43:52;;;;;;;24.95;15.85;;;;;;;7.34;100.00;97677.97;1223965;75;2911309;-64
2024/03/06 07:46:25;;;;;;;20.45;14.60;;;;;;;7.41;100.00;97678.44;1223593;75;2931119;-63
2024/03/06 07:48:58;;;;;;;22.60;14.30;;;;;;;7.42;100.00;97671.00;1223613;75;2922820;-65
2024/03/06 07:51:31;;;;;;;17.30;12.65;;;;;;;7.57;100.00;97679.34;1223351;75;2917932;-62
2024/03/06 07:54:04;;;;;;;17.60;12.60;;;;;;;7.67;100.00;97680.84;1224347;75;2922408;-64
2024/03/06 07:56:38;;;;;;;21.20;13.65;;;;;;;7.60;100.00;97684.63;1224819;75;2909711;-63
2024/03/06 07:59:15;;;;;;;17.70;13.20;;;;;;;7.55;100.00;97679.81;1224540;75;2923545;-63
2024/03/06 08:01:48;;;;;;;18.45;12.45;;;;;;;7.66;100.00;97682.06;1223579;75;2967869;-63
2024/03/06 08:04:20;;;;;;;21.35;13.80;;;;;;;7.57;100.00;97682.06;1224317;75;2922204;-63
2024/03/06 08:06:53;;;;;;;18.15;13.25;;;;;;;7.66;100.00;97687.50;1222630;75;2922766;-62
2024/03/06 08:09:28;;;;;;;21.35;13.60;;;;;;;7.66;100.00;97690.22;1223248;75;2923763;-64
2024/03/06 08:12:01;;;;;;;22.70;15.35;;;;;;;7.51;100.00;97687.38;1222389;75;2934124;-62
2024/03/06 08:14:37;;;;;;;17.80;13.90;;;;;;;7.79;100.00;97690.84;1221992;75;2935523;-63
2024/03/06 08:17:10;;;;;;;13.40;10.65;;;;;;;8.07;100.00;97693.50;1222894;75;2922100;-63
2024/03/06 08:19:42;;;;;;;13.25;10.15;;;;;;;8.08;100.00;97695.78;1223670;75;2925371;-63
2024/03/06 08:22:16;;;;;;;23.35;15.55;;;;;;;7.87;100.00;97699.47;1223400;75;2920277;-62
2024/03/06 08:24:49;;;;;;;24.30;17.00;;;;;;;7.83;100.00;97693.41;1223016;75;2922737;-66
2024/03/06 08:27:22;;;;;;;25.35;17.60;;;;;;;7.80;100.00;97697.78;1222610;75;2917716;-61
2024/03/06 08:29:57;;;;;;;23.50;16.30;;;;;;;7.91;100.00;97702.75;1223459;75;2925111;-65
2024/03/06 08:32:30;;;;;;;19.55;13.65;;;;;;;8.09;100.00;97704.72;1221754;75;2927467;-62
2024/03/06 08:35:05;;;;;;;17.00;12.60;;;;;;;8.28;100.00;97713.63;1224059;75;2923468;-63
2024/03/06 08:37:38;;;;;;;11.65;9.50;;;;;;;8.57;100.00;97701.44;1223419;75;2924925;-64
2024/03/06 08:40:14;;;;;;;10.45;8.00;;;;;;;8.72;100.00;97705.75;1224066;75;2954802;-62
2024/03/06 08:42:47;;;;;;;13.45;9.50;;;;;;;8.62;100.00;97704.28;1223422;75;2922856;-65
2024/03/06 08:45:24;;;;;;;15.85;10.20;;;;;;;8.64;100.00;97709.28;1225147;75;2926433;-63
2024/03/06 08:47:57;;;;;;;13.35;9.30;;;;;;;8.88;100.00;97704.63;1224756;75;2925335;-62
2024/03/06 08:50:30;;;;;;;12.30;9.15;;;;;;;9.03;100.00;97720.31;1224363;75;2941728;-60
2024/03/06 08:53:03;;;;;;;14.45;9.30;;;;;;;9.10;100.00;97718.00;1224209;75;2918737;-64
2024/03/06 08:55:36;;;;;;;12.70;9.50;;;;;;;9.13;100.00;97710.84;1224432;75;2923011;-61
2024/03/06 08:58:09;;;;;;;15.45;11.50;;;;;;;9.09;100.00;97715.72;1224385;75;2917574;-64
2024/03/06 09:00:45;;;;;;;21.20;15.70;;;;;;;8.75;100.00;97706.81;1224795;75;2925006;-65
2024/03/06 09:03:18;;;;;;;22.35;16.30;;;;;;;8.62;100.00;97711.72;1223485;75;2918403;-64
2024/03/06 09:05:51;;;;;;;20.55;15.10;;;;;;;8.70;100.00;97708.19;1224209;75;2926706;-66
2024/03/06 09:08:24;;;;;;;21.95;15.35;;;;;;;8.69;100.00;97711.38;1224450;75;2920930;-65
2024/03/06 09:10:58;;;;;;;21.90;15.15;;;;;;;8.82;100.00;97709.19;1224362;75;2922523;-63
2024/03/06 09:13:31;;;;;;;23.65;16.75;;;;;;;8.75;100.00;97717.72;1223550;75;2926308;-63
2024/03/06 09:16:07;;;;;;;23.70;16.30;;;;;;;8.87;100.00;97714.03;1224101;75;2921100;-63
2024/03/06 09:18:40;;;;;;;24.50;17.30;;;;;;;8.77;100.00;97718.00;1224270;75;2929484;-63
2024/03/06 09:21:13;;;;;;;23.55;16.70;;;;;;;8.81;100.00;97709.66;1224337;75;2919740;-63
2024/03/06 09:23:46;;;;;;;29.50;20.05;;;;;;;8.39;100.00;97718.56;1223896;75;2935341;-64
2024/03/06 09:26:20;;;;;;;20.15;15.15;;;;;;;8.77;100.00;97715.28;1223142;75;2925877;-63
2024/03/06 09:28:53;;;;;;;27.35;18.80;;;;;;;8.39;100.00;97729.50;1223861;75;2953781;-62
2024/03/06 09:31:28;;;;;;;26.25;18.20;;;;;;;8.65;100.00;97721.72;1224648;75;2930190;-65
2024/03/06 09:34:01;;;;;;;23.65;16.40;;;;;;;8.64;100.00;97720.22;1224956;75;2918817;-64
2024/03/06 09:36:34;;;;;;;19.45;14.70;;;;;;;9.10;100.00;97718.00;1224611;75;2920965;-63
2024/03/06 09:39:07;;;;;;;24.95;18.05;;;;;;;8.76;100.00;97718.50;1224387;75;2917989;-61
2024/03/06 09:41:41;;;;;;;24.90;17.40;;;;;;;8.63;100.00;97716.69;1223978;75;2940500;-64
2024/03/06 09:44:14;;;;;;;23.90;17.45;;;;;;;8.90;100.00;97717.81;1224505;75;2919820;-61
2024/03/06 09:46:51;;;;;;;22.95;15.95;;;;;;;9.09;100.00;97721.97;1224492;75;2930860;-64
2024/03/06 09:49:25;;;;;;;23.00;16.35;;;;;;;9.01;100.00;97718.06;1224401;75;2932812;-64
2024/03/06 09:51:58;;;;;;;22.30;16.05;;;;;;;9.20;100.00;97713.25;1220961;75;2919078;-66
2024/03/06 09:54:32;;;;;;;24.15;16.85;;;;;;;8.94;100.00;97713.69;1225319;75;2928120;-65
2024/03/06 09:57:05;;;;;;;27.60;17.70;;;;;;;8.95;100.00;97717.94;1222361;75;2935322;-65
2024/03/06 09:59:43;;;;;;;23.95;17.00;;;;;;;9.15;100.00;97713.88;1224559;75;2911495;-62
2024/03/06 10:02:38;;;;;;;21.80;15.50;;;;;;;9.38;98.87;97721.34;1223926;75;2922828;-64
2024/03/06 10:05:27;;;;;;;20.45;14.50;;;;;;;9.31;99.95;97715.47;1224738;75;2924218;-66
2024/03/06 10:07:59;;;;;;;;;;;;;;;8.83;100.00;97718.16;1225991;75;2919538;-64
2024/03/06 10:10:32;;;;;;;30.15;19.35;;;;;;;8.79;100.00;97715.59;1224652;75;2931401;-62
2024/03/06 10:13:07;;;;;;;27.65;17.55;;;;;;;8.98;100.00;97710.78;1223197;75;2921794;-65
2024/03/06 10:15:39;;;;;;;25.25;17.90;;;;;;;9.10;100.00;97715.28;1224714;75;2942552;-65
2024/03/06 10:18:19;;;;;;;24.15;17.55;;;;;;;9.20;100.00;97720.69;1224150;75;2921872;-63
2024/03/06 10:20:53;;;;;;;24.55;18.30;;;;;;;9.11;100.00;97711.31;1224154;75;2919420;-62
2024/03/06 10:23:28;;;;;;;28.80;19.55;;;;;;;9.28;100.00;97713.66;1224096;75;2927567;-62
2024/03/06 10:26:01;;;;;;;28.35;18.00;;;;;;;9.44;100.00;97713.25;1225080;75;2923238;-63
2024/03/06 10:28:36;;;;;;;28.40;18.95;;;;;;;9.39;100.00;97719.34;1224512;75;2918030;-64
2024/03/06 10:31:09;;;;;;;30.50;21.45;;;;;;;9.17;100.00;97706.00;1223578;75;2921512;-66
2024/03/06 10:33:47;;;;;;;24.50;18.10;;;;;;;9.60;100.00;97720.28;1223735;75;2931606;-65
2024/03/06 10:36:20;;;;;;;31.00;18.50;;;;;;;9.49;100.00;97714.56;1224899;75;2922027;-66
2024/03/06 10:39:07;;;;;;;31.90;20.65;;;;;;;9.28;100.00;97708.19;1252422;75;2808110;-62
2024/03/06 10:41:41;;;;;;;29.85;19.85;;;;;;;9.62;100.00;97708.84;1225389;75;2921659;-62
2024/03/06 10:44:18;;;;;;;28.40;19.50;;;;;;;9.48;100.00;97713.06;1225861;75;2921653;-64
2024/03/06 10:46:54;;;;;;;29.95;20.55;;;;;;;9.53;100.00;97707.72;1225909;75;2924909;-64
2024/03/06 10:49:29;;;;;;;27.40;19.70;;;;;;;9.60;100.00;97706.59;1225738;75;2934702;-63
2024/03/06 10:52:05;;;;;;;28.70;19.10;;;;;;;9.81;100.00;97707.47;1224878;75;2930528;-64
2024/03/06 10:54:42;;;;;;;31.80;20.15;;;;;;;9.43;100.00;97700.03;1225033;75;2927765;-63
2024/03/06 10:57:15;;;;;;;29.90;20.25;;;;;;;9.25;100.00;97715.34;1224815;75;2926878;-64
2024/03/06 10:59:51;;;;;;;32.60;21.55;;;;;;;9.18;100.00;97702.78;1225205;75;2926097;-62
2024/03/06 11:02:25;;;;;;;30.10;20.70;;;;;;;9.19;100.00;97703.56;1223170;75;2921155;-65
2024/03/06 11:04:58;;;;;;;25.65;18.95;;;;;;;9.78;100.00;97708.41;1225004;75;2927169;-66
2024/03/06 11:07:31;;;;;;;28.40;19.30;;;;;;;9.64;98.88;97704.44;1225021;75;2920555;-63
2024/03/06 11:10:15;;;;;;;25.30;17.60;;;;;;;9.90;96.79;97693.72;1224629;75;2931271;-63
2024/03/06 11:12:48;;;;;;;29.05;19.35;;;;;;;9.70;99.03;97699.84;1224509;75;2932761;-64
2024/03/06 11:15:23;;;;;;;23.95;17.50;;;;;;;9.89;100.00;97702.41;1225878;75;2926580;-64
2024/03/06 11:17:56;;;;;;;24.95;18.00;;;;;;;10.01;97.96;97693.19;1222452;75;2930211;-67
2024/03/06 11:20:36;;;;;;;27.90;20.15;;;;;;;9.27;100.00;97696.50;1224276;75;2918132;-64
2024/03/06 11:23:17;;;;;;;30.75;20.25;;;;;;;9.43;100.00;97700.03;1224653;75;2932153;-64
2024/03/06 11:26:17;;;;;;;25.45;18.50;;;;;;;9.45;100.00;97692.88;1226001;75;2922163;-64
2024/03/06 11:28:51;;;;;;;27.80;20.50;;;;;;;9.55;100.00;97691.59;1225613;75;2924017;-61
2024/03/06 11:31:24;;;;;;;26.20;19.00;;;;;;;9.57;100.00;97683.69;1222397;75;2920003;-64
2024/03/06 11:33:58;;;;;;;26.95;19.10;;;;;;;9.62;100.00;97684.25;1224800;75;2922508;-63
2024/03/06 11:36:32;;;;;;;23.75;18.20;;;;;;;9.65;100.00;97677.88;1225498;75;2926182;-62
2024/03/06 11:39:08;;;;;;;29.15;20.20;;;;;;;9.26;100.00;97681.34;1225291;75;2918041;-63
2024/03/06 11:41:54;;;;;;;29.15;20.75;;;;;;;9.13;100.00;97676.09;1225153;75;2936075;-63